sensor_id;sensor_type;location;lat;lon;timestamp;P1;durP1;ratioP1;P2;durP2;ratioP2
4692;SDS011;11710;48.024;16.296;2022-12-29T06:58:03;33.05;;;18.58;;
4692;SDS011;11710;48.024;16.296;2022-12-29T07:00:31;37.17;;;19.13;;
4692;SDS011;11710;48.024;16.296;2022-12-29T07:02:58;30.52;;;17.15;;
4692;SDS011;11710;48.024;16.296;2022-12-29T07:05:25;39.10;;;19.50;;
4692;SDS011;11710;48.024;16.296;2022-12-29T07:07:53;33.28;;;19.50;;
4692;SDS011;11710;48.024;16.296;2022-12-29T07:10:21;37.08;;;18.70;;
4692;SDS011;11710;48.024;16.296;2022-12-29T07:12:48;38.13;;;19.05;;
4692;SDS011;11710;48.024;16.296;2022-12-29T07:15:17;36.80;;;19.42;;
4692;SDS011;11710;48.024;16.296;2022-12-29T07:17:44;43.80;;;21.40;;
4692;SDS011;11710;48.024;16.296;2022-12-29T07:20:12;42.22;;;22.27;;
4692;SDS011;11710;48.024;16.296;2022-12-29T07:22:39;39.92;;;20.05;;
4692;SDS011;11710;48.024;16.296;2022-12-29T07:25:06;45.22;;;22.20;;
4692;SDS011;11710;48.024;16.296;2022-12-29T07:27:34;42.92;;;21.42;;
4692;SDS011;11710;48.024;16.296;2022-12-29T07:30:02;43.08;;;21.63;;
4692;SDS011;11710;48.024;16.296;2022-12-29T07:32:33;37.72;;;20.98;;
4692;SDS011;11710;48.024;16.296;2022-12-29T07:35:01;40.65;;;22.48;;
4692;SDS011;11710;48.024;16.296;2022-12-29T07:37:28;46.00;;;24.25;;
4692;SDS011;11710;48.024;16.296;2022-12-29T07:39:56;41.90;;;24.05;;
4692;SDS011;11710;48.024;16.296;2022-12-29T07:42:23;43.17;;;22.35;;
4692;SDS011;11710;48.024;16.296;2022-12-29T07:44:50;41.10;;;21.23;;
4692;SDS011;11710;48.024;16.296;2022-12-29T07:47:17;48.47;;;20.58;;
4692;SDS011;11710;48.024;16.296;2022-12-29T07:49:46;66.88;;;22.95;;
4692;SDS011;11710;48.024;16.296;2022-12-29T07:52:13;37.80;;;21.35;;
4692;SDS011;11710;48.024;16.296;2022-12-29T07:54:40;64.93;;;24.35;;
4692;SDS011;11710;48.024;16.296;2022-12-29T07:57:07;60.95;;;22.00;;
4692;SDS011;11710;48.024;16.296;2022-12-29T07:59:34;43.03;;;21.73;;
4692;SDS011;11710;48.024;16.296;2022-12-29T08:02:01;38.80;;;18.80;;
4692;SDS011;11710;48.024;16.296;2022-12-29T08:04:29;33.65;;;17.23;;
4692;SDS011;11710;48.024;16.296;2022-12-29T08:06:57;53.65;;;23.63;;
4692;SDS011;11710;48.024;16.296;2022-12-29T08:09:25;55.30;;;25.45;;
4692;SDS011;11710;48.024;16.296;2022-12-29T08:11:53;68.30;;;29.10;;
4692;SDS011;11710;48.024;16.296;2022-12-29T08:14:21;60.70;;;23.88;;
4692;SDS011;11710;48.024;16.296;2022-12-29T08:16:48;88.28;;;22.35;;
4692;SDS011;11710;48.024;16.296;2022-12-29T08:19:16;50.88;;;18.40;;
4692;SDS011;11710;48.024;16.296;2022-12-29T08:21:43;41.22;;;20.55;;
4692;SDS011;11710;48.024;16.296;2022-12-29T08:24:11;64.80;;;21.38;;
4692;SDS011;11710;48.024;16.296;2022-12-29T08:26:38;49.35;;;23.35;;
4692;SDS011;11710;48.024;16.296;2022-12-29T08:29:06;46.38;;;19.95;;
4692;SDS011;11710;48.024;16.296;2022-12-29T08:31:33;41.72;;;20.95;;
4692;SDS011;11710;48.024;16.296;2022-12-29T08:34:00;52.92;;;21.17;;
4692;SDS011;11710;48.024;16.296;2022-12-29T08:36:28;47.20;;;20.33;;
4692;SDS011;11710;48.024;16.296;2022-12-29T08:38:56;42.40;;;19.45;;
4692;SDS011;11710;48.024;16.296;2022-12-29T08:41:25;45.80;;;21.20;;
4692;SDS011;11710;48.024;16.296;2022-12-29T08:43:52;37.78;;;20.67;;
4692;SDS011;11710;48.024;16.296;2022-12-29T08:46:19;62.53;;;21.83;;
4692;SDS011;11710;48.024;16.296;2022-12-29T08:48:46;38.00;;;20.30;;
4692;SDS011;11710;48.024;16.296;2022-12-29T08:51:13;69.25;;;22.33;;
4692;SDS011;11710;48.024;16.296;2022-12-29T08:53:42;43.95;;;19.95;;
4692;SDS011;11710;48.024;16.296;2022-12-29T08:56:09;62.33;;;24.02;;
4692;SDS011;11710;48.024;16.296;2022-12-29T08:58:39;54.85;;;22.15;;
4692;SDS011;11710;48.024;16.296;2022-12-29T09:01:07;61.38;;;22.60;;
4692;SDS011;11710;48.024;16.296;2022-12-29T09:03:35;79.43;;;25.52;;
4692;SDS011;11710;48.024;16.296;2022-12-29T09:06:02;57.08;;;21.92;;
4692;SDS011;11710;48.024;16.296;2022-12-29T09:08:30;87.50;;;22.08;;
4692;SDS011;11710;48.024;16.296;2022-12-29T09:11:05;82.97;;;22.98;;
4692;SDS011;11710;48.024;16.296;2022-12-29T09:13:34;79.00;;;21.35;;
4692;SDS011;11710;48.024;16.296;2022-12-29T09:16:03;90.05;;;22.77;;
4692;SDS011;11710;48.024;16.296;2022-12-29T09:18:30;72.57;;;24.67;;
4692;SDS011;11710;48.024;16.296;2022-12-29T09:20:58;76.22;;;26.40;;
4692;SDS011;11710;48.024;16.296;2022-12-29T09:23:26;68.68;;;22.60;;
4692;SDS011;11710;48.024;16.296;2022-12-29T09:25:53;49.67;;;23.58;;
4692;SDS011;11710;48.024;16.296;2022-12-29T09:28:21;86.30;;;30.63;;
4692;SDS011;11710;48.024;16.296;2022-12-29T09:30:49;45.80;;;20.83;;
4692;SDS011;11710;48.024;16.296;2022-12-29T09:33:19;56.03;;;20.58;;
4692;SDS011;11710;48.024;16.296;2022-12-29T09:35:49;62.88;;;20.25;;
4692;SDS011;11710;48.024;16.296;2022-12-29T09:38:18;42.03;;;20.05;;
4692;SDS011;11710;48.024;16.296;2022-12-29T09:40:48;64.28;;;21.75;;
4692;SDS011;11710;48.024;16.296;2022-12-29T09:43:23;38.88;;;19.98;;
4692;SDS011;11710;48.024;16.296;2022-12-29T09:46:08;47.30;;;20.83;;
4692;SDS011;11710;48.024;16.296;2022-12-29T09:48:45;72.30;;;19.95;;
4692;SDS011;11710;48.024;16.296;2022-12-29T09:51:18;61.42;;;21.95;;
4692;SDS011;11710;48.024;16.296;2022-12-29T09:53:50;69.20;;;21.85;;
4692;SDS011;11710;48.024;16.296;2022-12-29T09:56:22;76.70;;;20.98;;
4692;SDS011;11710;48.024;16.296;2022-12-29T09:58:52;44.45;;;20.52;;
4692;SDS011;11710;48.024;16.296;2022-12-29T10:01:27;65.38;;;19.85;;
4692;SDS011;11710;48.024;16.296;2022-12-29T10:04:00;74.72;;;20.90;;
4692;SDS011;11710;48.024;16.296;2022-12-29T10:06:32;48.38;;;20.73;;
4692;SDS011;11710;48.024;16.296;2022-12-29T10:09:08;42.42;;;20.35;;
4692;SDS011;11710;48.024;16.296;2022-12-29T10:11:48;47.55;;;20.80;;
4692;SDS011;11710;48.024;16.296;2022-12-29T10:14:31;58.90;;;22.65;;
4692;SDS011;11710;48.024;16.296;2022-12-29T10:17:08;67.15;;;20.25;;
4692;SDS011;11710;48.024;16.296;2022-12-29T10:19:48;54.22;;;22.30;;
4692;SDS011;11710;48.024;16.296;2022-12-29T10:22:32;51.50;;;22.90;;
4692;SDS011;11710;48.024;16.296;2022-12-29T10:25:11;62.95;;;21.60;;
4692;SDS011;11710;48.024;16.296;2022-12-29T10:27:43;72.72;;;23.90;;
4692;SDS011;11710;48.024;16.296;2022-12-29T10:30:13;51.60;;;22.65;;
4692;SDS011;11710;48.024;16.296;2022-12-29T10:32:43;44.70;;;22.17;;
4692;SDS011;11710;48.024;16.296;2022-12-29T10:35:16;44.17;;;21.88;;
4692;SDS011;11710;48.024;16.296;2022-12-29T10:37:48;51.20;;;21.50;;
4692;SDS011;11710;48.024;16.296;2022-12-29T10:40:24;39.95;;;21.95;;
4692;SDS011;11710;48.024;16.296;2022-12-29T10:42:57;57.92;;;24.05;;
4692;SDS011;11710;48.024;16.296;2022-12-29T10:45:26;60.33;;;23.08;;
4692;SDS011;11710;48.024;16.296;2022-12-29T10:47:57;60.13;;;22.33;;
4692;SDS011;11710;48.024;16.296;2022-12-29T10:50:30;51.58;;;21.45;;
4692;SDS011;11710;48.024;16.296;2022-12-29T10:52:57;44.83;;;21.52;;
4692;SDS011;11710;48.024;16.296;2022-12-29T10:55:29;42.88;;;20.73;;
4692;SDS011;11710;48.024;16.296;2022-12-29T10:57:59;42.65;;;20.40;;
4692;SDS011;11710;48.024;16.296;2022-12-29T11:00:31;43.00;;;19.88;;
4692;SDS011;11710;48.024;16.296;2022-12-29T11:06:04;34.22;;;17.63;;
4692;SDS011;11710;48.024;16.296;2022-12-29T11:08:38;37.60;;;18.75;;
4692;SDS011;11710;48.024;16.296;2022-12-29T11:11:11;37.42;;;18.70;;
4692;SDS011;11710;48.024;16.296;2022-12-29T11:13:46;41.72;;;21.38;;
4692;SDS011;11710;48.024;16.296;2022-12-29T11:16:17;43.85;;;21.55;;
4692;SDS011;11710;48.024;16.296;2022-12-29T11:18:55;36.47;;;19.02;;
4692;SDS011;11710;48.024;16.296;2022-12-29T11:24:18;42.83;;;21.33;;
4692;SDS011;11710;48.024;16.296;2022-12-29T11:26:48;41.97;;;20.65;;
4692;SDS011;11710;48.024;16.296;2022-12-29T11:29:23;47.90;;;21.05;;
4692;SDS011;11710;48.024;16.296;2022-12-29T11:31:53;43.88;;;21.50;;
4692;SDS011;11710;48.024;16.296;2022-12-29T11:34:25;44.90;;;21.10;;
4692;SDS011;11710;48.024;16.296;2022-12-29T11:37:00;44.65;;;19.48;;
4692;SDS011;11710;48.024;16.296;2022-12-29T11:39:36;43.63;;;21.23;;
4692;SDS011;11710;48.024;16.296;2022-12-29T11:42:12;43.00;;;21.30;;
4692;SDS011;11710;48.024;16.296;2022-12-29T11:44:43;43.13;;;20.92;;
4692;SDS011;11710;48.024;16.296;2022-12-29T11:47:13;41.28;;;21.60;;
4692;SDS011;11710;48.024;16.296;2022-12-29T11:49:49;46.72;;;21.95;;
4692;SDS011;11710;48.024;16.296;2022-12-29T11:52:23;56.15;;;22.33;;
4692;SDS011;11710;48.024;16.296;2022-12-29T11:54:53;51.88;;;23.23;;
4692;SDS011;11710;48.024;16.296;2022-12-29T11:57:22;45.80;;;21.75;;
4692;SDS011;11710;48.024;16.296;2022-12-29T11:59:51;51.35;;;23.85;;
4692;SDS011;11710;48.024;16.296;2022-12-29T12:02:23;46.85;;;23.98;;
4692;SDS011;11710;48.024;16.296;2022-12-29T12:05:09;49.13;;;23.48;;
4692;SDS011;11710;48.024;16.296;2022-12-29T12:07:59;51.80;;;23.40;;
4692;SDS011;11710;48.024;16.296;2022-12-29T12:10:33;47.78;;;22.73;;
4692;SDS011;11710;48.024;16.296;2022-12-29T12:13:09;47.90;;;24.42;;
4692;SDS011;11710;48.024;16.296;2022-12-29T12:15:47;41.53;;;22.60;;
4692;SDS011;11710;48.024;16.296;2022-12-29T12:18:26;44.40;;;24.05;;
4692;SDS011;11710;48.024;16.296;2022-12-29T12:21:06;46.72;;;23.20;;
4692;SDS011;11710;48.024;16.296;2022-12-29T12:23:43;46.70;;;22.77;;
4692;SDS011;11710;48.024;16.296;2022-12-29T12:26:27;45.25;;;23.30;;
4692;SDS011;11710;48.024;16.296;2022-12-29T12:28:59;44.13;;;22.02;;
4692;SDS011;11710;48.024;16.296;2022-12-29T12:31:36;56.08;;;24.27;;
4692;SDS011;11710;48.024;16.296;2022-12-29T12:34:13;49.20;;;25.30;;
4692;SDS011;11710;48.024;16.296;2022-12-29T12:36:56;48.63;;;24.63;;
4692;SDS011;11710;48.024;16.296;2022-12-29T12:39:39;46.78;;;23.50;;
4692;SDS011;11710;48.024;16.296;2022-12-29T12:42:18;48.10;;;23.48;;
4692;SDS011;11710;48.024;16.296;2022-12-29T12:44:56;52.25;;;23.80;;
4692;SDS011;11710;48.024;16.296;2022-12-29T12:47:35;47.85;;;23.13;;
4692;SDS011;11710;48.024;16.296;2022-12-29T12:53:13;41.25;;;22.23;;
4692;SDS011;11710;48.024;16.296;2022-12-29T12:55:57;44.05;;;21.55;;
4692;SDS011;11710;48.024;16.296;2022-12-29T12:58:43;41.83;;;22.10;;
4692;SDS011;11710;48.024;16.296;2022-12-29T13:01:23;44.20;;;21.05;;
4692;SDS011;11710;48.024;16.296;2022-12-29T13:04:02;37.85;;;20.38;;
4692;SDS011;11710;48.024;16.296;2022-12-29T13:06:45;36.10;;;20.90;;
4692;SDS011;11710;48.024;16.296;2022-12-29T13:09:29;39.92;;;20.92;;
4692;SDS011;11710;48.024;16.296;2022-12-29T13:12:13;37.38;;;20.20;;
4692;SDS011;11710;48.024;16.296;2022-12-29T13:14:55;41.92;;;21.02;;
4692;SDS011;11710;48.024;16.296;2022-12-29T13:17:33;44.22;;;23.83;;
4692;SDS011;11710;48.024;16.296;2022-12-29T13:20:11;42.35;;;21.08;;
4692;SDS011;11710;48.024;16.296;2022-12-29T13:22:51;44.28;;;23.00;;
4692;SDS011;11710;48.024;16.296;2022-12-29T13:25:27;44.72;;;23.35;;
4692;SDS011;11710;48.024;16.296;2022-12-29T13:28:08;40.42;;;22.20;;
4692;SDS011;11710;48.024;16.296;2022-12-29T13:30:45;42.42;;;23.33;;
4692;SDS011;11710;48.024;16.296;2022-12-29T13:33:21;47.88;;;22.73;;
4692;SDS011;11710;48.024;16.296;2022-12-29T13:35:55;50.05;;;23.88;;
4692;SDS011;11710;48.024;16.296;2022-12-29T13:38:29;44.08;;;21.52;;
4692;SDS011;11710;48.024;16.296;2022-12-29T13:41:01;50.08;;;23.02;;
4692;SDS011;11710;48.024;16.296;2022-12-29T13:43:34;56.50;;;25.38;;
4692;SDS011;11710;48.024;16.296;2022-12-29T13:46:07;51.05;;;24.65;;
4692;SDS011;11710;48.024;16.296;2022-12-29T13:48:43;52.15;;;25.90;;
4692;SDS011;11710;48.024;16.296;2022-12-29T13:51:18;47.40;;;24.10;;
4692;SDS011;11710;48.024;16.296;2022-12-29T13:53:53;50.83;;;26.38;;
4692;SDS011;11710;48.024;16.296;2022-12-29T13:56:31;58.65;;;28.83;;
4692;SDS011;11710;48.024;16.296;2022-12-29T13:59:07;46.30;;;22.98;;
4692;SDS011;11710;48.024;16.296;2022-12-29T14:01:46;45.05;;;23.17;;
4692;SDS011;11710;48.024;16.296;2022-12-29T14:04:22;51.65;;;24.60;;
4692;SDS011;11710;48.024;16.296;2022-12-29T14:07:00;52.50;;;25.25;;
4692;SDS011;11710;48.024;16.296;2022-12-29T14:09:38;50.60;;;26.42;;
4692;SDS011;11710;48.024;16.296;2022-12-29T14:12:26;46.85;;;23.15;;
4692;SDS011;11710;48.024;16.296;2022-12-29T14:15:04;50.55;;;26.70;;
4692;SDS011;11710;48.024;16.296;2022-12-29T14:17:39;53.03;;;26.90;;
4692;SDS011;11710;48.024;16.296;2022-12-29T14:20:16;53.20;;;27.02;;
4692;SDS011;11710;48.024;16.296;2022-12-29T14:22:55;46.25;;;24.15;;
4692;SDS011;11710;48.024;16.296;2022-12-29T14:28:25;52.30;;;25.63;;
4692;SDS011;11710;48.024;16.296;2022-12-29T14:30:55;51.92;;;26.63;;
4692;SDS011;11710;48.024;16.296;2022-12-29T14:33:24;53.08;;;26.30;;
4692;SDS011;11710;48.024;16.296;2022-12-29T14:35:53;48.42;;;25.15;;
4692;SDS011;11710;48.024;16.296;2022-12-29T14:38:22;49.53;;;23.90;;
4692;SDS011;11710;48.024;16.296;2022-12-29T14:43:53;50.80;;;25.70;;
4692;SDS011;11710;48.024;16.296;2022-12-29T14:46:25;53.38;;;26.45;;
4692;SDS011;11710;48.024;16.296;2022-12-29T14:49:08;48.45;;;24.60;;
4692;SDS011;11710;48.024;16.296;2022-12-29T14:51:42;48.40;;;24.77;;
4692;SDS011;11710;48.024;16.296;2022-12-29T14:57:07;46.88;;;24.88;;
4692;SDS011;11710;48.024;16.296;2022-12-29T14:59:39;47.97;;;24.40;;
4692;SDS011;11710;48.024;16.296;2022-12-29T15:02:13;51.55;;;27.13;;
4692;SDS011;11710;48.024;16.296;2022-12-29T15:04:43;54.60;;;27.55;;
4692;SDS011;11710;48.024;16.296;2022-12-29T15:07:11;59.83;;;29.50;;
4692;SDS011;11710;48.024;16.296;2022-12-29T15:09:41;63.10;;;32.25;;
4692;SDS011;11710;48.024;16.296;2022-12-29T15:12:18;54.17;;;29.00;;
4692;SDS011;11710;48.024;16.296;2022-12-29T15:14:49;58.83;;;29.33;;
4692;SDS011;11710;48.024;16.296;2022-12-29T15:17:27;61.22;;;29.05;;
4692;SDS011;11710;48.024;16.296;2022-12-29T15:19:56;57.85;;;29.90;;
4692;SDS011;11710;48.024;16.296;2022-12-29T15:22:24;57.30;;;29.17;;
4692;SDS011;11710;48.024;16.296;2022-12-29T15:24:53;50.97;;;25.63;;
4692;SDS011;11710;48.024;16.296;2022-12-29T15:27:25;51.47;;;26.33;;
4692;SDS011;11710;48.024;16.296;2022-12-29T15:29:57;53.72;;;26.05;;
4692;SDS011;11710;48.024;16.296;2022-12-29T15:32:29;50.78;;;27.25;;
4692;SDS011;11710;48.024;16.296;2022-12-29T15:35:17;47.70;;;25.77;;
4692;SDS011;11710;48.024;16.296;2022-12-29T15:37:54;52.15;;;26.05;;
4692;SDS011;11710;48.024;16.296;2022-12-29T15:40:23;56.30;;;28.33;;
4692;SDS011;11710;48.024;16.296;2022-12-29T15:43:02;51.20;;;27.00;;
4692;SDS011;11710;48.024;16.296;2022-12-29T15:45:53;54.83;;;27.70;;
4692;SDS011;11710;48.024;16.296;2022-12-29T15:48:23;59.13;;;27.20;;
4692;SDS011;11710;48.024;16.296;2022-12-29T15:50:51;56.25;;;28.67;;
4692;SDS011;11710;48.024;16.296;2022-12-29T15:53:19;53.97;;;27.60;;
4692;SDS011;11710;48.024;16.296;2022-12-29T15:55:53;61.28;;;29.23;;
4692;SDS011;11710;48.024;16.296;2022-12-29T15:58:23;48.70;;;27.75;;
4692;SDS011;11710;48.024;16.296;2022-12-29T16:00:53;53.08;;;27.95;;
4692;SDS011;11710;48.024;16.296;2022-12-29T16:03:26;58.30;;;29.58;;
4692;SDS011;11710;48.024;16.296;2022-12-29T16:06:06;53.50;;;27.13;;
4692;SDS011;11710;48.024;16.296;2022-12-29T16:08:36;52.75;;;25.92;;
4692;SDS011;11710;48.024;16.296;2022-12-29T16:11:07;52.28;;;25.92;;
4692;SDS011;11710;48.024;16.296;2022-12-29T16:13:47;48.90;;;23.80;;
4692;SDS011;11710;48.024;16.296;2022-12-29T16:16:18;54.17;;;26.05;;
4692;SDS011;11710;48.024;16.296;2022-12-29T16:18:49;46.08;;;25.58;;
4692;SDS011;11710;48.024;16.296;2022-12-29T16:21:18;44.45;;;24.73;;
4692;SDS011;11710;48.024;16.296;2022-12-29T16:23:48;43.10;;;24.25;;
4692;SDS011;11710;48.024;16.296;2022-12-29T16:26:17;50.50;;;28.15;;
4692;SDS011;11710;48.024;16.296;2022-12-29T16:28:47;50.53;;;26.77;;
4692;SDS011;11710;48.024;16.296;2022-12-29T16:31:18;50.97;;;27.90;;
4692;SDS011;11710;48.024;16.296;2022-12-29T16:33:49;53.78;;;26.15;;
4692;SDS011;11710;48.024;16.296;2022-12-29T16:36:21;51.42;;;27.30;;
4692;SDS011;11710;48.024;16.296;2022-12-29T16:38:51;50.65;;;27.67;;
4692;SDS011;11710;48.024;16.296;2022-12-29T16:41:44;46.88;;;24.95;;
4692;SDS011;11710;48.024;16.296;2022-12-29T16:44:12;48.92;;;26.98;;
4692;SDS011;11710;48.024;16.296;2022-12-29T16:46:43;50.92;;;26.98;;
4692;SDS011;11710;48.024;16.296;2022-12-29T16:49:25;53.45;;;27.33;;
4692;SDS011;11710;48.024;16.296;2022-12-29T16:51:53;54.05;;;29.13;;
4692;SDS011;11710;48.024;16.296;2022-12-29T16:54:22;55.92;;;30.10;;
4692;SDS011;11710;48.024;16.296;2022-12-29T16:56:51;60.13;;;31.58;;
4692;SDS011;11710;48.024;16.296;2022-12-29T16:59:26;63.00;;;30.92;;
4692;SDS011;11710;48.024;16.296;2022-12-29T17:01:59;64.78;;;31.65;;
4692;SDS011;11710;48.024;16.296;2022-12-29T17:04:33;56.83;;;30.35;;
4692;SDS011;11710;48.024;16.296;2022-12-29T17:07:00;56.40;;;30.95;;
4692;SDS011;11710;48.024;16.296;2022-12-29T17:09:27;64.00;;;32.78;;
4692;SDS011;11710;48.024;16.296;2022-12-29T17:11:56;61.10;;;32.75;;
4692;SDS011;11710;48.024;16.296;2022-12-29T17:14:31;57.53;;;32.50;;
4692;SDS011;11710;48.024;16.296;2022-12-29T17:17:10;65.40;;;34.78;;
4692;SDS011;11710;48.024;16.296;2022-12-29T17:19:45;60.85;;;31.77;;
4692;SDS011;11710;48.024;16.296;2022-12-29T17:22:16;53.63;;;30.45;;
4692;SDS011;11710;48.024;16.296;2022-12-29T17:24:46;57.05;;;32.35;;
4692;SDS011;11710;48.024;16.296;2022-12-29T17:27:19;51.45;;;30.20;;
4692;SDS011;11710;48.024;16.296;2022-12-29T17:29:50;60.55;;;32.63;;
4692;SDS011;11710;48.024;16.296;2022-12-29T17:32:19;63.42;;;33.13;;
4692;SDS011;11710;48.024;16.296;2022-12-29T17:34:48;57.78;;;32.25;;
4692;SDS011;11710;48.024;16.296;2022-12-29T17:40:02;61.28;;;36.28;;
4692;SDS011;11710;48.024;16.296;2022-12-29T17:42:31;67.55;;;37.50;;
4692;SDS011;11710;48.024;16.296;2022-12-29T17:45:01;66.63;;;35.65;;
4692;SDS011;11710;48.024;16.296;2022-12-29T17:47:29;61.75;;;33.10;;
4692;SDS011;11710;48.024;16.296;2022-12-29T17:49:58;58.05;;;32.65;;
4692;SDS011;11710;48.024;16.296;2022-12-29T17:52:27;56.30;;;33.03;;
4692;SDS011;11710;48.024;16.296;2022-12-29T17:55:03;59.45;;;32.47;;
4692;SDS011;11710;48.024;16.296;2022-12-29T17:57:31;59.20;;;32.63;;
4692;SDS011;11710;48.024;16.296;2022-12-29T17:59:58;59.03;;;34.30;;
4692;SDS011;11710;48.024;16.296;2022-12-29T18:02:26;64.63;;;36.05;;
4692;SDS011;11710;48.024;16.296;2022-12-29T18:04:56;70.18;;;35.03;;
4692;SDS011;11710;48.024;16.296;2022-12-29T18:07:25;64.32;;;35.45;;
4692;SDS011;11710;48.024;16.296;2022-12-29T18:09:54;60.90;;;35.55;;
4692;SDS011;11710;48.024;16.296;2022-12-29T18:12:26;52.22;;;33.45;;
4692;SDS011;11710;48.024;16.296;2022-12-29T18:14:55;55.28;;;34.03;;
4692;SDS011;11710;48.024;16.296;2022-12-29T18:17:23;62.33;;;36.53;;
4692;SDS011;11710;48.024;16.296;2022-12-29T18:19:51;65.25;;;36.63;;
4692;SDS011;11710;48.024;16.296;2022-12-29T18:22:24;62.10;;;36.30;;
4692;SDS011;11710;48.024;16.296;2022-12-29T18:24:54;61.17;;;36.03;;
4692;SDS011;11710;48.024;16.296;2022-12-29T18:27:21;67.38;;;37.63;;
4692;SDS011;11710;48.024;16.296;2022-12-29T18:29:48;60.40;;;34.15;;
4692;SDS011;11710;48.024;16.296;2022-12-29T18:32:16;63.78;;;35.58;;
4692;SDS011;11710;48.024;16.296;2022-12-29T18:34:45;63.15;;;35.42;;
4692;SDS011;11710;48.024;16.296;2022-12-29T18:37:13;65.53;;;36.55;;
4692;SDS011;11710;48.024;16.296;2022-12-29T18:39:42;91.68;;;48.08;;
4692;SDS011;11710;48.024;16.296;2022-12-29T18:42:09;99.80;;;52.00;;
4692;SDS011;11710;48.024;16.296;2022-12-29T18:44:42;132.18;;;70.82;;
4692;SDS011;11710;48.024;16.296;2022-12-29T18:47:09;110.72;;;60.97;;
4692;SDS011;11710;48.024;16.296;2022-12-29T18:49:37;70.10;;;40.88;;
4692;SDS011;11710;48.024;16.296;2022-12-29T18:52:04;72.07;;;41.20;;
4692;SDS011;11710;48.024;16.296;2022-12-29T18:54:32;82.65;;;47.10;;
4692;SDS011;11710;48.024;16.296;2022-12-29T18:57:00;84.45;;;52.60;;
4692;SDS011;11710;48.024;16.296;2022-12-29T18:59:28;91.03;;;52.17;;
4692;SDS011;11710;48.024;16.296;2022-12-29T19:01:55;76.15;;;46.60;;
4692;SDS011;11710;48.024;16.296;2022-12-29T19:04:22;66.50;;;42.85;;
4692;SDS011;11710;48.024;16.296;2022-12-29T19:06:49;69.13;;;42.75;;
4692;SDS011;11710;48.024;16.296;2022-12-29T19:09:16;77.25;;;42.47;;
4692;SDS011;11710;48.024;16.296;2022-12-29T19:11:44;87.90;;;48.15;;
4692;SDS011;11710;48.024;16.296;2022-12-29T19:14:15;68.40;;;39.95;;
4692;SDS011;11710;48.024;16.296;2022-12-29T19:16:43;70.45;;;41.83;;
4692;SDS011;11710;48.024;16.296;2022-12-29T19:19:15;78.40;;;41.80;;
4692;SDS011;11710;48.024;16.296;2022-12-29T19:21:42;78.65;;;41.47;;
4692;SDS011;11710;48.024;16.296;2022-12-29T19:24:10;72.53;;;40.83;;
4692;SDS011;11710;48.024;16.296;2022-12-29T19:26:38;64.97;;;40.33;;
4692;SDS011;11710;48.024;16.296;2022-12-29T19:29:09;73.93;;;41.58;;
4692;SDS011;11710;48.024;16.296;2022-12-29T19:31:42;65.35;;;40.88;;
4692;SDS011;11710;48.024;16.296;2022-12-29T19:34:11;69.28;;;40.65;;
4692;SDS011;11710;48.024;16.296;2022-12-29T19:36:40;62.33;;;38.28;;
4692;SDS011;11710;48.024;16.296;2022-12-29T19:39:07;69.70;;;40.42;;
4692;SDS011;11710;48.024;16.296;2022-12-29T19:41:35;64.32;;;37.70;;
4692;SDS011;11710;48.024;16.296;2022-12-29T19:44:03;64.05;;;38.85;;
4692;SDS011;11710;48.024;16.296;2022-12-29T19:46:32;61.47;;;36.92;;
4692;SDS011;11710;48.024;16.296;2022-12-29T19:49:01;63.92;;;36.97;;
4692;SDS011;11710;48.024;16.296;2022-12-29T19:51:28;71.50;;;40.75;;
4692;SDS011;11710;48.024;16.296;2022-12-29T19:53:56;73.75;;;41.90;;
4692;SDS011;11710;48.024;16.296;2022-12-29T19:56:23;83.82;;;43.60;;
4692;SDS011;11710;48.024;16.296;2022-12-29T19:58:51;69.57;;;41.35;;
4692;SDS011;11710;48.024;16.296;2022-12-29T20:01:18;68.32;;;41.80;;
4692;SDS011;11710;48.024;16.296;2022-12-29T20:03:47;64.97;;;41.83;;
4692;SDS011;11710;48.024;16.296;2022-12-29T20:06:16;78.35;;;43.30;;
4692;SDS011;11710;48.024;16.296;2022-12-29T20:08:44;80.70;;;43.42;;
4692;SDS011;11710;48.024;16.296;2022-12-29T20:11:12;78.55;;;44.72;;
4692;SDS011;11710;48.024;16.296;2022-12-29T20:13:41;76.57;;;44.08;;
4692;SDS011;11710;48.024;16.296;2022-12-29T20:16:10;82.35;;;46.55;;
4692;SDS011;11710;48.024;16.296;2022-12-29T20:18:39;76.70;;;44.00;;
4692;SDS011;11710;48.024;16.296;2022-12-29T20:21:07;76.85;;;46.13;;
4692;SDS011;11710;48.024;16.296;2022-12-29T20:23:39;78.60;;;42.85;;
4692;SDS011;11710;48.024;16.296;2022-12-29T20:26:07;77.18;;;44.65;;
4692;SDS011;11710;48.024;16.296;2022-12-29T20:28:39;83.32;;;45.50;;
4692;SDS011;11710;48.024;16.296;2022-12-29T20:31:11;82.13;;;45.90;;
4692;SDS011;11710;48.024;16.296;2022-12-29T20:33:40;78.97;;;43.67;;
4692;SDS011;11710;48.024;16.296;2022-12-29T20:36:08;82.78;;;45.53;;
4692;SDS011;11710;48.024;16.296;2022-12-29T20:38:40;70.93;;;41.88;;
4692;SDS011;11710;48.024;16.296;2022-12-29T20:41:09;80.22;;;45.08;;
4692;SDS011;11710;48.024;16.296;2022-12-29T20:43:37;78.68;;;45.00;;
4692;SDS011;11710;48.024;16.296;2022-12-29T20:46:05;82.70;;;39.92;;
4692;SDS011;11710;48.024;16.296;2022-12-29T20:48:32;71.72;;;41.38;;
4692;SDS011;11710;48.024;16.296;2022-12-29T20:51:00;68.22;;;39.63;;
4692;SDS011;11710;48.024;16.296;2022-12-29T20:53:28;75.75;;;41.70;;
4692;SDS011;11710;48.024;16.296;2022-12-29T20:56:00;70.28;;;41.65;;
4692;SDS011;11710;48.024;16.296;2022-12-29T20:58:30;71.35;;;37.20;;
4692;SDS011;11710;48.024;16.296;2022-12-29T21:01:00;60.53;;;36.88;;
4692;SDS011;11710;48.024;16.296;2022-12-29T21:03:28;64.25;;;36.25;;
4692;SDS011;11710;48.024;16.296;2022-12-29T21:05:55;59.53;;;32.28;;
4692;SDS011;11710;48.024;16.296;2022-12-29T21:08:24;54.72;;;32.58;;
4692;SDS011;11710;48.024;16.296;2022-12-29T21:10:52;49.85;;;30.40;;
4692;SDS011;11710;48.024;16.296;2022-12-29T21:13:21;62.25;;;32.10;;
4692;SDS011;11710;48.024;16.296;2022-12-29T21:15:48;65.35;;;34.22;;
4692;SDS011;11710;48.024;16.296;2022-12-29T21:18:22;68.80;;;36.38;;
4692;SDS011;11710;48.024;16.296;2022-12-29T21:20:53;64.13;;;34.05;;
4692;SDS011;11710;48.024;16.296;2022-12-29T21:23:22;60.88;;;35.15;;
4692;SDS011;11710;48.024;16.296;2022-12-29T21:25:50;57.85;;;31.95;;
4692;SDS011;11710;48.024;16.296;2022-12-29T21:28:18;58.75;;;33.05;;
4692;SDS011;11710;48.024;16.296;2022-12-29T21:30:48;67.00;;;37.55;;
4692;SDS011;11710;48.024;16.296;2022-12-29T21:33:16;72.10;;;40.10;;
4692;SDS011;11710;48.024;16.296;2022-12-29T21:35:46;66.32;;;39.47;;
4692;SDS011;11710;48.024;16.296;2022-12-29T21:38:14;54.47;;;33.72;;
4692;SDS011;11710;48.024;16.296;2022-12-29T21:40:41;54.22;;;33.20;;
4692;SDS011;11710;48.024;16.296;2022-12-29T21:43:08;54.60;;;31.50;;
4692;SDS011;11710;48.024;16.296;2022-12-29T21:45:38;58.83;;;31.52;;
4692;SDS011;11710;48.024;16.296;2022-12-29T21:48:04;63.45;;;33.47;;
4692;SDS011;11710;48.024;16.296;2022-12-29T21:50:50;60.92;;;33.42;;
4692;SDS011;11710;48.024;16.296;2022-12-29T21:53:37;76.10;;;36.53;;
4692;SDS011;11710;48.024;16.296;2022-12-29T21:56:06;92.57;;;45.13;;
4692;SDS011;11710;48.024;16.296;2022-12-29T21:58:35;82.85;;;42.17;;
4692;SDS011;11710;48.024;16.296;2022-12-29T22:01:22;77.38;;;40.35;;
4692;SDS011;11710;48.024;16.296;2022-12-29T22:04:09;69.53;;;37.58;;